sensor_id;sensor_type;location;lat;lon;timestamp;temperature;humidity
2849;DHT22;59355;52.416;13.412;2022-07-24T00:01:05;15.00;99.90
2849;DHT22;59355;52.416;13.412;2022-07-24T00:03:31;15.10;99.90
2849;DHT22;59355;52.416;13.412;2022-07-24T00:05:57;15.10;99.90
2849;DHT22;59355;52.416;13.412;2022-07-24T00:08:23;15.10;99.90
2849;DHT22;59355;52.416;13.412;2022-07-24T00:10:49;15.10;99.90
2849;DHT22;59355;52.416;13.412;2022-07-24T00:13:15;15.10;99.90
2849;DHT22;59355;52.416;13.412;2022-07-24T00:15:41;15.00;99.90
2849;DHT22;59355;52.416;13.412;2022-07-24T00:18:07;14.80;99.90
2849;DHT22;59355;52.416;13.412;2022-07-24T00:20:33;14.70;99.90
2849;DHT22;59355;52.416;13.412;2022-07-24T00:22:59;14.50;99.90
2849;DHT22;59355;52.416;13.412;2022-07-24T00:25:26;14.60;99.90
2849;DHT22;59355;52.416;13.412;2022-07-24T00:27:52;14.50;99.90
2849;DHT22;59355;52.416;13.412;2022-07-24T00:30:18;14.40;99.90
2849;DHT22;59355;52.416;13.412;2022-07-24T00:32:44;14.50;99.90
2849;DHT22;59355;52.416;13.412;2022-07-24T00:35:10;14.40;99.90
2849;DHT22;59355;52.416;13.412;2022-07-24T00:37:38;14.40;99.90
2849;DHT22;59355;52.416;13.412;2022-07-24T00:40:05;14.40;99.90
2849;DHT22;59355;52.416;13.412;2022-07-24T00:42:31;14.40;99.90
2849;DHT22;59355;52.416;13.412;2022-07-24T00:44:57;14.50;99.90
2849;DHT22;59355;52.416;13.412;2022-07-24T00:47:23;14.60;99.90
2849;DHT22;59355;52.416;13.412;2022-07-24T00:49:49;14.80;99.90
2849;DHT22;59355;52.416;13.412;2022-07-24T00:52:16;14.70;99.90
2849;DHT22;59355;52.416;13.412;2022-07-24T00:54:42;14.70;99.90
2849;DHT22;59355;52.416;13.412;2022-07-24T00:57:08;14.60;99.90
2849;DHT22;59355;52.416;13.412;2022-07-24T00:59:34;14.50;99.90
2849;DHT22;59355;52.416;13.412;2022-07-24T01:02:00;14.40;99.90
2849;DHT22;59355;52.416;13.412;2022-07-24T01:04:26;14.30;99.90
2849;DHT22;59355;52.416;13.412;2022-07-24T01:06:52;14.40;99.90
2849;DHT22;59355;52.416;13.412;2022-07-24T01:09:18;14.30;99.90
2849;DHT22;59355;52.416;13.412;2022-07-24T01:11:44;14.30;99.90
2849;DHT22;59355;52.416;13.412;2022-07-24T01:14:10;14.20;99.90
2849;DHT22;59355;52.416;13.412;2022-07-24T01:16:39;14.10;99.90
2849;DHT22;59355;52.416;13.412;2022-07-24T01:19:05;14.10;99.90
2849;DHT22;59355;52.416;13.412;2022-07-24T01:21:31;14.00;99.90
2849;DHT22;59355;52.416;13.412;2022-07-24T01:23:57;14.00;99.90
2849;DHT22;59355;52.416;13.412;2022-07-24T01:26:23;14.00;99.90
2849;DHT22;59355;52.416;13.412;2022-07-24T01:28:50;14.10;99.90
2849;DHT22;59355;52.416;13.412;2022-07-24T01:31:16;14.10;99.90
2849;DHT22;59355;52.416;13.412;2022-07-24T01:33:42;14.00;99.90
2849;DHT22;59355;52.416;13.412;2022-07-24T01:36:08;13.90;99.90
2849;DHT22;59355;52.416;13.412;2022-07-24T01:38:34;13.80;99.90
2849;DHT22;59355;52.416;13.412;2022-07-24T01:41:00;13.90;99.90
2849;DHT22;59355;52.416;13.412;2022-07-24T01:43:26;13.90;99.90
2849;DHT22;59355;52.416;13.412;2022-07-24T01:45:52;14.00;99.90
2849;DHT22;59355;52.416;13.412;2022-07-24T01:48:18;14.00;99.90
2849;DHT22;59355;52.416;13.412;2022-07-24T01:50:44;14.00;99.90
2849;DHT22;59355;52.416;13.412;2022-07-24T01:53:10;14.00;99.90
2849;DHT22;59355;52.416;13.412;2022-07-24T01:55:36;14.00;99.90
2849;DHT22;59355;52.416;13.412;2022-07-24T01:58:03;14.00;99.90
2849;DHT22;59355;52.416;13.412;2022-07-24T02:00:29;14.00;99.90
2849;DHT22;59355;52.416;13.412;2022-07-24T02:02:55;14.10;99.90
2849;DHT22;59355;52.416;13.412;2022-07-24T02:05:21;14.30;99.90
2849;DHT22;59355;52.416;13.412;2022-07-24T02:07:55;14.20;99.90
2849;DHT22;59355;52.416;13.412;2022-07-24T02:10:22;14.10;99.90
2849;DHT22;59355;52.416;13.412;2022-07-24T02:12:49;14.00;99.90
2849;DHT22;59355;52.416;13.412;2022-07-24T02:15:15;14.00;99.90
2849;DHT22;59355;52.416;13.412;2022-07-24T02:17:49;14.00;99.90
2849;DHT22;59355;52.416;13.412;2022-07-24T02:20:16;14.10;99.90
2849;DHT22;59355;52.416;13.412;2022-07-24T02:22:42;14.00;99.90
2849;DHT22;59355;52.416;13.412;2022-07-24T02:25:09;14.00;99.90
2849;DHT22;59355;52.416;13.412;2022-07-24T02:27:35;13.80;99.90
2849;DHT22;59355;52.416;13.412;2022-07-24T02:30:03;13.80;99.90
2849;DHT22;59355;52.416;13.412;2022-07-24T02:32:30;13.70;99.90
2849;DHT22;59355;52.416;13.412;2022-07-24T02:34:56;13.60;99.90
2849;DHT22;59355;52.416;13.412;2022-07-24T02:37:22;13.50;99.90
2849;DHT22;59355;52.416;13.412;2022-07-24T02:39:48;13.50;99.90
2849;DHT22;59355;52.416;13.412;2022-07-24T02:42:14;13.50;99.90
2849;DHT22;59355;52.416;13.412;2022-07-24T02:44:40;13.50;99.90
2849;DHT22;59355;52.416;13.412;2022-07-24T02:47:06;13.50;99.90
2849;DHT22;59355;52.416;13.412;2022-07-24T02:49:32;13.50;99.90
2849;DHT22;59355;52.416;13.412;2022-07-24T02:51:58;13.40;99.90
2849;DHT22;59355;52.416;13.412;2022-07-24T02:54:25;13.40;99.90
2849;DHT22;59355;52.416;13.412;2022-07-24T02:56:51;13.30;99.90
2849;DHT22;59355;52.416;13.412;2022-07-24T02:59:17;13.30;99.90
2849;DHT22;59355;52.416;13.412;2022-07-24T03:01:43;13.30;99.90
2849;DHT22;59355;52.416;13.412;2022-07-24T03:04:09;13.30;99.90
2849;DHT22;59355;52.416;13.412;2022-07-24T03:06:35;13.30;99.90
2849;DHT22;59355;52.416;13.412;2022-07-24T03:09:02;13.30;99.90
2849;DHT22;59355;52.416;13.412;2022-07-24T03:11:28;13.30;99.90
2849;DHT22;59355;52.416;13.412;2022-07-24T03:13:54;13.30;99.90
2849;DHT22;59355;52.416;13.412;2022-07-24T03:16:20;13.40;99.90
2849;DHT22;59355;52.416;13.412;2022-07-24T03:18:46;13.40;99.90
2849;DHT22;59355;52.416;13.412;2022-07-24T03:21:15;13.40;99.90
2849;DHT22;59355;52.416;13.412;2022-07-24T03:23:41;13.40;99.90
2849;DHT22;59355;52.416;13.412;2022-07-24T03:26:08;13.30;99.90
2849;DHT22;59355;52.416;13.412;2022-07-24T03:28:34;13.20;99.90
2849;DHT22;59355;52.416;13.412;2022-07-24T03:31:00;13.20;99.90
2849;DHT22;59355;52.416;13.412;2022-07-24T03:33:27;13.00;99.90
2849;DHT22;59355;52.416;13.412;2022-07-24T03:35:54;13.00;99.90
2849;DHT22;59355;52.416;13.412;2022-07-24T03:38:20;13.00;99.90
2849;DHT22;59355;52.416;13.412;2022-07-24T03:40:46;13.10;99.90
2849;DHT22;59355;52.416;13.412;2022-07-24T03:43:12;13.10;99.90
2849;DHT22;59355;52.416;13.412;2022-07-24T03:45:39;13.20;99.90
2849;DHT22;59355;52.416;13.412;2022-07-24T03:48:06;13.10;99.90
2849;DHT22;59355;52.416;13.412;2022-07-24T03:50:32;13.20;99.90
2849;DHT22;59355;52.416;13.412;2022-07-24T03:52:58;13.20;99.90
2849;DHT22;59355;52.416;13.412;2022-07-24T03:55:24;13.30;99.90
2849;DHT22;59355;52.416;13.412;2022-07-24T03:57:50;13.40;99.90
2849;DHT22;59355;52.416;13.412;2022-07-24T04:00:16;13.40;99.90
2849;DHT22;59355;52.416;13.412;2022-07-24T04:02:42;13.50;99.90
2849;DHT22;59355;52.416;13.412;2022-07-24T04:05:09;13.50;99.90
2849;DHT22;59355;52.416;13.412;2022-07-24T04:07:36;13.60;99.90
2849;DHT22;59355;52.416;13.412;2022-07-24T04:10:03;13.70;99.90
2849;DHT22;59355;52.416;13.412;2022-07-24T04:12:30;13.80;99.90
2849;DHT22;59355;52.416;13.412;2022-07-24T04:14:56;14.00;99.90
2849;DHT22;59355;52.416;13.412;2022-07-24T04:17:22;14.10;99.90
2849;DHT22;59355;52.416;13.412;2022-07-24T04:19:48;14.10;99.90
2849;DHT22;59355;52.416;13.412;2022-07-24T04:22:14;14.20;99.90
2849;DHT22;59355;52.416;13.412;2022-07-24T04:24:40;14.20;99.90
2849;DHT22;59355;52.416;13.412;2022-07-24T04:27:06;14.20;99.90
2849;DHT22;59355;52.416;13.412;2022-07-24T04:29:32;14.30;99.90
2849;DHT22;59355;52.416;13.412;2022-07-24T04:31:58;14.40;99.90
2849;DHT22;59355;52.416;13.412;2022-07-24T04:34:24;14.50;99.90
2849;DHT22;59355;52.416;13.412;2022-07-24T04:36:50;14.60;99.90
2849;DHT22;59355;52.416;13.412;2022-07-24T04:39:17;14.60;99.90
2849;DHT22;59355;52.416;13.412;2022-07-24T04:41:43;14.80;99.90
2849;DHT22;59355;52.416;13.412;2022-07-24T04:44:09;14.80;99.90
2849;DHT22;59355;52.416;13.412;2022-07-24T04:46:35;14.80;99.90
2849;DHT22;59355;52.416;13.412;2022-07-24T04:49:02;14.90;99.90
2849;DHT22;59355;52.416;13.412;2022-07-24T04:51:28;14.90;99.90
2849;DHT22;59355;52.416;13.412;2022-07-24T04:53:54;15.00;99.90
2849;DHT22;59355;52.416;13.412;2022-07-24T04:56:20;15.00;99.90
2849;DHT22;59355;52.416;13.412;2022-07-24T04:58:47;14.90;99.90
2849;DHT22;59355;52.416;13.412;2022-07-24T05:01:13;15.00;99.90
2849;DHT22;59355;52.416;13.412;2022-07-24T05:03:40;15.10;99.90
2849;DHT22;59355;52.416;13.412;2022-07-24T05:06:07;15.20;99.90
2849;DHT22;59355;52.416;13.412;2022-07-24T05:08:33;15.30;99.90
2849;DHT22;59355;52.416;13.412;2022-07-24T05:10:59;15.30;99.90
2849;DHT22;59355;52.416;13.412;2022-07-24T05:13:25;15.30;99.90
2849;DHT22;59355;52.416;13.412;2022-07-24T05:15:51;15.40;99.90
2849;DHT22;59355;52.416;13.412;2022-07-24T05:18:17;15.40;99.90
2849;DHT22;59355;52.416;13.412;2022-07-24T05:20:43;15.40;99.90
2849;DHT22;59355;52.416;13.412;2022-07-24T05:23:09;15.60;99.90
2849;DHT22;59355;52.416;13.412;2022-07-24T05:25:35;15.50;99.90
2849;DHT22;59355;52.416;13.412;2022-07-24T05:28:01;15.50;99.90
2849;DHT22;59355;52.416;13.412;2022-07-24T05:30:27;15.60;99.90
2849;DHT22;59355;52.416;13.412;2022-07-24T05:32:53;15.60;99.90
2849;DHT22;59355;52.416;13.412;2022-07-24T05:35:19;15.80;99.90
2849;DHT22;59355;52.416;13.412;2022-07-24T05:37:45;15.90;99.90
2849;DHT22;59355;52.416;13.412;2022-07-24T05:40:12;16.20;99.90
2849;DHT22;59355;52.416;13.412;2022-07-24T05:42:38;16.20;99.90
2849;DHT22;59355;52.416;13.412;2022-07-24T05:45:04;16.10;99.90
2849;DHT22;59355;52.416;13.412;2022-07-24T05:47:40;16.30;99.90
2849;DHT22;59355;52.416;13.412;2022-07-24T05:50:08;16.50;99.90
2849;DHT22;59355;52.416;13.412;2022-07-24T05:52:35;16.30;99.90
2849;DHT22;59355;52.416;13.412;2022-07-24T05:55:02;16.40;99.90
2849;DHT22;59355;52.416;13.412;2022-07-24T05:57:29;16.40;99.90
2849;DHT22;59355;52.416;13.412;2022-07-24T05:59:55;16.40;99.90
2849;DHT22;59355;52.416;13.412;2022-07-24T06:02:21;16.40;99.90
2849;DHT22;59355;52.416;13.412;2022-07-24T06:04:47;16.60;99.90
2849;DHT22;59355;52.416;13.412;2022-07-24T06:07:13;16.80;99.90
2849;DHT22;59355;52.416;13.412;2022-07-24T06:09:39;16.70;99.90
2849;DHT22;59355;52.416;13.412;2022-07-24T06:12:06;16.80;99.90
2849;DHT22;59355;52.416;13.412;2022-07-24T06:14:32;16.90;99.90
2849;DHT22;59355;52.416;13.412;2022-07-24T06:16:59;17.00;99.90
2849;DHT22;59355;52.416;13.412;2022-07-24T06:19:26;17.00;99.90
2849;DHT22;59355;52.416;13.412;2022-07-24T06:21:52;17.10;99.90
2849;DHT22;59355;52.416;13.412;2022-07-24T06:24:18;17.10;99.90
2849;DHT22;59355;52.416;13.412;2022-07-24T06:26:44;17.20;99.90
2849;DHT22;59355;52.416;13.412;2022-07-24T06:29:10;17.20;99.90
2849;DHT22;59355;52.416;13.412;2022-07-24T06:31:36;17.30;99.90
2849;DHT22;59355;52.416;13.412;2022-07-24T06:34:02;17.40;99.90
2849;DHT22;59355;52.416;13.412;2022-07-24T06:36:29;17.50;99.90
2849;DHT22;59355;52.416;13.412;2022-07-24T06:38:55;17.60;99.90
2849;DHT22;59355;52.416;13.412;2022-07-24T06:41:21;17.50;99.90
2849;DHT22;59355;52.416;13.412;2022-07-24T06:43:47;17.70;99.90
2849;DHT22;59355;52.416;13.412;2022-07-24T06:46:13;17.70;99.90
2849;DHT22;59355;52.416;13.412;2022-07-24T06:48:39;17.80;99.90
2849;DHT22;59355;52.416;13.412;2022-07-24T06:51:05;17.80;99.90
2849;DHT22;59355;52.416;13.412;2022-07-24T06:53:31;17.90;99.90
2849;DHT22;59355;52.416;13.412;2022-07-24T06:55:57;18.00;99.90
2849;DHT22;59355;52.416;13.412;2022-07-24T06:58:23;18.10;99.90
2849;DHT22;59355;52.416;13.412;2022-07-24T07:00:50;18.20;99.90
2849;DHT22;59355;52.416;13.412;2022-07-24T07:03:16;18.20;99.90
2849;DHT22;59355;52.416;13.412;2022-07-24T07:05:43;18.20;99.90
2849;DHT22;59355;52.416;13.412;2022-07-24T07:08:09;18.30;99.90
2849;DHT22;59355;52.416;13.412;2022-07-24T07:10:35;18.40;99.90
2849;DHT22;59355;52.416;13.412;2022-07-24T07:13:01;18.30;99.90
2849;DHT22;59355;52.416;13.412;2022-07-24T07:15:27;18.10;99.90
2849;DHT22;59355;52.416;13.412;2022-07-24T07:17:53;18.30;99.90
2849;DHT22;59355;52.416;13.412;2022-07-24T07:20:19;18.40;99.90
2849;DHT22;59355;52.416;13.412;2022-07-24T07:22:45;18.50;99.90
2849;DHT22;59355;52.416;13.412;2022-07-24T07:25:12;18.70;99.90
2849;DHT22;59355;52.416;13.412;2022-07-24T07:27:38;18.70;99.90
2849;DHT22;59355;52.416;13.412;2022-07-24T07:30:05;18.70;99.90
2849;DHT22;59355;52.416;13.412;2022-07-24T07:32:32;18.70;99.90
2849;DHT22;59355;52.416;13.412;2022-07-24T07:34:58;18.80;99.90
2849;DHT22;59355;52.416;13.412;2022-07-24T07:37:24;18.80;99.90
2849;DHT22;59355;52.416;13.412;2022-07-24T07:39:50;18.90;99.90
2849;DHT22;59355;52.416;13.412;2022-07-24T07:42:16;18.90;99.90
2849;DHT22;59355;52.416;13.412;2022-07-24T07:44:42;19.00;99.90
2849;DHT22;59355;52.416;13.412;2022-07-24T07:47:09;19.10;99.90
2849;DHT22;59355;52.416;13.412;2022-07-24T07:49:35;19.20;99.90
2849;DHT22;59355;52.416;13.412;2022-07-24T07:52:01;19.20;99.90
2849;DHT22;59355;52.416;13.412;2022-07-24T07:54:27;19.20;99.90
2849;DHT22;59355;52.416;13.412;2022-07-24T07:56:53;19.20;99.90
2849;DHT22;59355;52.416;13.412;2022-07-24T07:59:19;19.40;99.90
2849;DHT22;59355;52.416;13.412;2022-07-24T08:01:45;19.30;99.90
2849;DHT22;59355;52.416;13.412;2022-07-24T08:04:11;19.40;99.90
2849;DHT22;59355;52.416;13.412;2022-07-24T08:06:37;19.50;99.90
2849;DHT22;59355;52.416;13.412;2022-07-24T08:09:03;19.60;99.90
2849;DHT22;59355;52.416;13.412;2022-07-24T08:11:29;19.70;99.90
2849;DHT22;59355;52.416;13.412;2022-07-24T08:13:56;19.70;99.90
2849;DHT22;59355;52.416;13.412;2022-07-24T08:16:22;19.90;99.90
2849;DHT22;59355;52.416;13.412;2022-07-24T08:18:48;20.00;99.90
2849;DHT22;59355;52.416;13.412;2022-07-24T08:21:14;20.00;99.90
2849;DHT22;59355;52.416;13.412;2022-07-24T08:23:41;20.10;99.90
2849;DHT22;59355;52.416;13.412;2022-07-24T08:26:07;20.00;99.90
2849;DHT22;59355;52.416;13.412;2022-07-24T08:28:33;20.10;99.90
2849;DHT22;59355;52.416;13.412;2022-07-24T08:30:59;20.10;99.90
2849;DHT22;59355;52.416;13.412;2022-07-24T08:33:25;20.20;99.90
2849;DHT22;59355;52.416;13.412;2022-07-24T08:35:51;20.30;99.90
2849;DHT22;59355;52.416;13.412;2022-07-24T08:38:17;20.30;99.90
2849;DHT22;59355;52.416;13.412;2022-07-24T08:40:45;20.30;99.90
2849;DHT22;59355;52.416;13.412;2022-07-24T08:43:11;20.40;99.90
2849;DHT22;59355;52.416;13.412;2022-07-24T08:45:40;20.50;99.90
2849;DHT22;59355;52.416;13.412;2022-07-24T08:48:08;20.60;99.90
2849;DHT22;59355;52.416;13.412;2022-07-24T08:50:36;20.60;99.90
2849;DHT22;59355;52.416;13.412;2022-07-24T08:53:04;20.70;99.90
2849;DHT22;59355;52.416;13.412;2022-07-24T08:55:30;20.60;99.90
2849;DHT22;59355;52.416;13.412;2022-07-24T08:57:58;20.60;99.90
2849;DHT22;59355;52.416;13.412;2022-07-24T09:00:25;20.70;99.90
2849;DHT22;59355;52.416;13.412;2022-07-24T09:02:51;20.90;95.90
2849;DHT22;59355;52.416;13.412;2022-07-24T09:05:17;20.90;93.00
2849;DHT22;59355;52.416;13.412;2022-07-24T09:07:43;21.00;93.20
2849;DHT22;59355;52.416;13.412;2022-07-24T09:10:15;21.10;92.40
2849;DHT22;59355;52.416;13.412;2022-07-24T09:12:44;21.30;94.10
2849;DHT22;59355;52.416;13.412;2022-07-24T09:15:19;21.30;85.00
2849;DHT22;59355;52.416;13.412;2022-07-24T09:17:57;21.50;87.20
2849;DHT22;59355;52.416;13.412;2022-07-24T09:20:25;21.70;94.50
2849;DHT22;59355;52.416;13.412;2022-07-24T09:22:53;21.80;88.80
2849;DHT22;59355;52.416;13.412;2022-07-24T09:25:27;21.80;81.40
2849;DHT22;59355;52.416;13.412;2022-07-24T09:27:56;21.70;82.20
2849;DHT22;59355;52.416;13.412;2022-07-24T09:30:26;21.80;82.90
2849;DHT22;59355;52.416;13.412;2022-07-24T09:33:36;21.90;81.50
2849;DHT22;59355;52.416;13.412;2022-07-24T09:35:48;22.00;76.80
2849;DHT22;59355;52.416;13.412;2022-07-24T09:38:22;21.90;74.10
2849;DHT22;59355;52.416;13.412;2022-07-24T09:40:54;22.00;77.90
2849;DHT22;59355;52.416;13.412;2022-07-24T09:43:28;22.20;77.70
2849;DHT22;59355;52.416;13.412;2022-07-24T09:46:07;22.40;74.90
2849;DHT22;59355;52.416;13.412;2022-07-24T09:48:55;22.50;75.20
2849;DHT22;59355;52.416;13.412;2022-07-24T09:51:24;22.40;80.20
2849;DHT22;59355;52.416;13.412;2022-07-24T09:53:58;22.50;82.20
2849;DHT22;59355;52.416;13.412;2022-07-24T09:56:24;22.70;79.60
2849;DHT22;59355;52.416;13.412;2022-07-24T09:58:53;22.80;73.70
2849;DHT22;59355;52.416;13.412;2022-07-24T10:01:25;22.90;73.70
2849;DHT22;59355;52.416;13.412;2022-07-24T10:03:53;22.90;67.80
2849;DHT22;59355;52.416;13.412;2022-07-24T10:06:21;22.90;67.00
2849;DHT22;59355;52.416;13.412;2022-07-24T10:08:50;22.90;67.80
2849;DHT22;59355;52.416;13.412;2022-07-24T10:11:17;23.10;67.60
2849;DHT22;59355;52.416;13.412;2022-07-24T10:13:44;23.20;67.90
2849;DHT22;59355;52.416;13.412;2022-07-24T10:21:29;23.20;69.30
2849;DHT22;59355;52.416;13.412;2022-07-24T10:26:47;23.50;65.80
2849;DHT22;59355;52.416;13.412;2022-07-24T10:29:18;23.50;66.40
2849;DHT22;59355;52.416;13.412;2022-07-24T10:31:53;23.70;65.40
2849;DHT22;59355;52.416;13.412;2022-07-24T10:34:39;23.80;63.70
2849;DHT22;59355;52.416;13.412;2022-07-24T10:42:27;24.20;61.80
2849;DHT22;59355;52.416;13.412;2022-07-24T10:45:22;24.00;58.90
2849;DHT22;59355;52.416;13.412;2022-07-24T10:47:48;23.90;60.80
2849;DHT22;59355;52.416;13.412;2022-07-24T10:50:14;24.00;60.80
2849;DHT22;59355;52.416;13.412;2022-07-24T10:52:41;24.30;62.60
2849;DHT22;59355;52.416;13.412;2022-07-24T10:55:30;24.60;61.90
2849;DHT22;59355;52.416;13.412;2022-07-24T10:57:59;24.80;59.10
2849;DHT22;59355;52.416;13.412;2022-07-24T11:00:37;24.70;58.80
2849;DHT22;59355;52.416;13.412;2022-07-24T11:03:05;24.80;60.10
2849;DHT22;59355;52.416;13.412;2022-07-24T11:05:37;24.80;60.50
2849;DHT22;59355;52.416;13.412;2022-07-24T11:10:49;24.80;58.20
2849;DHT22;59355;52.416;13.412;2022-07-24T11:24:16;25.10;59.20
2849;DHT22;59355;52.416;13.412;2022-07-24T11:26:52;25.40;58.80
2849;DHT22;59355;52.416;13.412;2022-07-24T11:29:24;25.50;58.60
2849;DHT22;59355;52.416;13.412;2022-07-24T11:31:55;25.70;57.00
2849;DHT22;59355;52.416;13.412;2022-07-24T11:34:23;25.50;56.20
2849;DHT22;59355;52.416;13.412;2022-07-24T11:36:50;25.40;55.50
2849;DHT22;59355;52.416;13.412;2022-07-24T11:39:18;25.40;57.60
2849;DHT22;59355;52.416;13.412;2022-07-24T11:41:56;25.70;57.60
2849;DHT22;59355;52.416;13.412;2022-07-24T11:44:32;25.70;54.60
2849;DHT22;59355;52.416;13.412;2022-07-24T11:47:23;25.60;56.00
2849;DHT22;59355;52.416;13.412;2022-07-24T11:49:57;25.60;56.00
2849;DHT22;59355;52.416;13.412;2022-07-24T11:52:30;25.70;55.30
2849;DHT22;59355;52.416;13.412;2022-07-24T11:57:31;25.90;54.70
2849;DHT22;59355;52.416;13.412;2022-07-24T11:59:57;26.10;52.60
2849;DHT22;59355;52.416;13.412;2022-07-24T12:02:24;25.90;53.30
2849;DHT22;59355;52.416;13.412;2022-07-24T12:04:51;25.90;52.70
2849;DHT22;59355;52.416;13.412;2022-07-24T12:07:20;25.90;53.40
2849;DHT22;59355;52.416;13.412;2022-07-24T12:09:53;26.10;53.90
2849;DHT22;59355;52.416;13.412;2022-07-24T12:12:37;26.40;52.20
2849;DHT22;59355;52.416;13.412;2022-07-24T12:15:09;26.70;53.70
2849;DHT22;59355;52.416;13.412;2022-07-24T12:20:32;27.00;53.00
2849;DHT22;59355;52.416;13.412;2022-07-24T12:23:00;26.70;48.60
2849;DHT22;59355;52.416;13.412;2022-07-24T12:25:30;26.60;49.30
2849;DHT22;59355;52.416;13.412;2022-07-24T12:28:07;26.80;50.40
2849;DHT22;59355;52.416;13.412;2022-07-24T12:30:39;26.80;49.70
2849;DHT22;59355;52.416;13.412;2022-07-24T12:33:08;27.00;49.60
2849;DHT22;59355;52.416;13.412;2022-07-24T12:35:57;27.00;50.20
2849;DHT22;59355;52.416;13.412;2022-07-24T12:38:25;27.00;48.20
2849;DHT22;59355;52.416;13.412;2022-07-24T12:41:00;27.20;49.60
2849;DHT22;59355;52.416;13.412;2022-07-24T12:43:26;27.40;50.10
2849;DHT22;59355;52.416;13.412;2022-07-24T12:46:08;27.40;49.60
2849;DHT22;59355;52.416;13.412;2022-07-24T12:48:35;27.50;49.20
2849;DHT22;59355;52.416;13.412;2022-07-24T12:51:08;27.70;48.70
2849;DHT22;59355;52.416;13.412;2022-07-24T12:53:37;28.10;49.90
2849;DHT22;59355;52.416;13.412;2022-07-24T12:56:09;28.10;49.00
2849;DHT22;59355;52.416;13.412;2022-07-24T12:58:56;27.50;47.60
2849;DHT22;59355;52.416;13.412;2022-07-24T13:01:24;27.40;48.70
2849;DHT22;59355;52.416;13.412;2022-07-24T13:03:57;27.20;48.40
2849;DHT22;59355;52.416;13.412;2022-07-24T13:06:41;27.40;47.60
2849;DHT22;59355;52.416;13.412;2022-07-24T13:09:09;27.50;47.00
2849;DHT22;59355;52.416;13.412;2022-07-24T13:11:36;27.30;46.20
2849;DHT22;59355;52.416;13.412;2022-07-24T13:14:02;27.50;48.10
2849;DHT22;59355;52.416;13.412;2022-07-24T13:16:30;27.60;47.20
2849;DHT22;59355;52.416;13.412;2022-07-24T13:18:58;27.60;46.20
2849;DHT22;59355;52.416;13.412;2022-07-24T13:21:25;27.50;46.00
2849;DHT22;59355;52.416;13.412;2022-07-24T13:23:51;27.80;47.60
2849;DHT22;59355;52.416;13.412;2022-07-24T13:26:17;28.00;45.80
2849;DHT22;59355;52.416;13.412;2022-07-24T13:28:44;27.70;46.10
2849;DHT22;59355;52.416;13.412;2022-07-24T13:31:10;27.70;46.20
2849;DHT22;59355;52.416;13.412;2022-07-24T13:33:36;27.70;46.20
2849;DHT22;59355;52.416;13.412;2022-07-24T13:36:02;27.80;46.60
2849;DHT22;59355;52.416;13.412;2022-07-24T13:38:29;28.00;46.10
2849;DHT22;59355;52.416;13.412;2022-07-24T13:40:55;27.80;45.80
2849;DHT22;59355;52.416;13.412;2022-07-24T13:43:21;28.00;46.10
2849;DHT22;59355;52.416;13.412;2022-07-24T13:45:47;28.20;47.10
2849;DHT22;59355;52.416;13.412;2022-07-24T13:48:13;28.10;45.80
2849;DHT22;59355;52.416;13.412;2022-07-24T13:50:39;28.20;45.70
2849;DHT22;59355;52.416;13.412;2022-07-24T13:53:05;28.20;45.60
2849;DHT22;59355;52.416;13.412;2022-07-24T13:55:31;28.10;45.30
2849;DHT22;59355;52.416;13.412;2022-07-24T13:57:58;28.50;47.60
2849;DHT22;59355;52.416;13.412;2022-07-24T14:05:25;29.00;44.70
2849;DHT22;59355;52.416;13.412;2022-07-24T14:07:52;29.00;45.10
2849;DHT22;59355;52.416;13.412;2022-07-24T14:10:19;28.90;44.80
2849;DHT22;59355;52.416;13.412;2022-07-24T14:12:46;28.80;44.30
2849;DHT22;59355;52.416;13.412;2022-07-24T14:15:14;28.80;45.90
2849;DHT22;59355;52.416;13.412;2022-07-24T14:17:41;29.00;45.70
2849;DHT22;59355;52.416;13.412;2022-07-24T14:20:11;28.80;44.70
2849;DHT22;59355;52.416;13.412;2022-07-24T14:22:39;28.60;44.80
2849;DHT22;59355;52.416;13.412;2022-07-24T14:25:06;28.50;44.80
2849;DHT22;59355;52.416;13.412;2022-07-24T14:27:33;28.50;45.20
2849;DHT22;59355;52.416;13.412;2022-07-24T14:29:59;28.70;44.60
2849;DHT22;59355;52.416;13.412;2022-07-24T14:32:25;29.00;45.70
2849;DHT22;59355;52.416;13.412;2022-07-24T14:34:51;29.80;45.70
2849;DHT22;59355;52.416;13.412;2022-07-24T14:37:18;30.50;44.30
2849;DHT22;59355;52.416;13.412;2022-07-24T14:39:44;31.60;43.30
2849;DHT22;59355;52.416;13.412;2022-07-24T14:42:10;32.40;42.40
2849;DHT22;59355;52.416;13.412;2022-07-24T14:44:36;33.50;42.50
2849;DHT22;59355;52.416;13.412;2022-07-24T14:47:02;34.20;39.40
2849;DHT22;59355;52.416;13.412;2022-07-24T14:49:31;34.40;39.60
2849;DHT22;59355;52.416;13.412;2022-07-24T14:51:57;34.90;40.70
2849;DHT22;59355;52.416;13.412;2022-07-24T14:54:23;35.30;38.10
2849;DHT22;59355;52.416;13.412;2022-07-24T14:56:50;35.10;39.80
2849;DHT22;59355;52.416;13.412;2022-07-24T14:59:16;36.10;39.20
2849;DHT22;59355;52.416;13.412;2022-07-24T15:01:42;36.70;38.20
2849;DHT22;59355;52.416;13.412;2022-07-24T15:04:08;37.30;36.90
2849;DHT22;59355;52.416;13.412;2022-07-24T15:06:35;37.40;35.60
2849;DHT22;59355;52.416;13.412;2022-07-24T15:09:03;37.50;35.00
2849;DHT22;59355;52.416;13.412;2022-07-24T15:11:29;37.90;33.90
2849;DHT22;59355;52.416;13.412;2022-07-24T15:13:55;36.10;34.40
2849;DHT22;59355;52.416;13.412;2022-07-24T15:16:21;35.60;35.30
2849;DHT22;59355;52.416;13.412;2022-07-24T15:18:47;36.30;36.10
2849;DHT22;59355;52.416;13.412;2022-07-24T15:21:13;37.10;35.30
2849;DHT22;59355;52.416;13.412;2022-07-24T15:23:40;37.80;34.50
2849;DHT22;59355;52.416;13.412;2022-07-24T15:26:06;36.90;34.80
2849;DHT22;59355;52.416;13.412;2022-07-24T15:28:32;37.40;33.80
2849;DHT22;59355;52.416;13.412;2022-07-24T15:30:58;38.00;33.00
2849;DHT22;59355;52.416;13.412;2022-07-24T15:33:25;37.70;34.60
2849;DHT22;59355;52.416;13.412;2022-07-24T15:35:51;38.20;33.90
2849;DHT22;59355;52.416;13.412;2022-07-24T15:38:17;38.40;34.30
2849;DHT22;59355;52.416;13.412;2022-07-24T15:40:44;38.60;33.60
2849;DHT22;59355;52.416;13.412;2022-07-24T15:43:10;39.10;36.00
2849;DHT22;59355;52.416;13.412;2022-07-24T15:45:37;38.80;32.80
2849;DHT22;59355;52.416;13.412;2022-07-24T15:48:03;38.60;34.90
2849;DHT22;59355;52.416;13.412;2022-07-24T15:50:29;38.40;36.00
2849;DHT22;59355;52.416;13.412;2022-07-24T15:52:55;38.40;35.70
2849;DHT22;59355;52.416;13.412;2022-07-24T15:55:21;38.30;36.50
2849;DHT22;59355;52.416;13.412;2022-07-24T15:57:48;38.40;37.80
2849;DHT22;59355;52.416;13.412;2022-07-24T16:00:15;39.00;39.00
2849;DHT22;59355;52.416;13.412;2022-07-24T16:02:41;39.10;34.00
2849;DHT22;59355;52.416;13.412;2022-07-24T16:05:08;38.90;34.80
2849;DHT22;59355;52.416;13.412;2022-07-24T16:07:34;39.50;34.10
2849;DHT22;59355;52.416;13.412;2022-07-24T16:10:02;38.90;31.50